Flight Track Log - Related Links

Times and Time Zones

All times are in EST time to prevent confusion due to time zone crossing. See the AVN10 flight status page for this flight to view local times or setup timezone preferences in your user account.

Time Position Orientation Groundspeed Altitude Reporting Facility
EST Latitude Longitude Course Direction KTS MPH feet Rate Location/Type
Wed 03:07:00 PM -18.0728 167.9176 226° Southwest  Level FlightAware Approximate
Wed 03:08:00 PM -18.1350 167.8504 226° Southwest  Level FlightAware Approximate
Wed 03:09:00 PM -18.1971 167.7831 226° Southwest  Level FlightAware Approximate
Wed 03:10:00 PM -18.2592 167.7158 226° Southwest  Level FlightAware Approximate
Wed 03:11:00 PM -18.3213 167.6485 226° Southwest  Level FlightAware Approximate
Wed 03:12:00 PM -18.3834 167.5811 226° Southwest  Level FlightAware Approximate
Wed 03:13:00 PM -18.4454 167.5137 226° Southwest  Level FlightAware Approximate
Wed 03:14:00 PM -18.5074 167.4462 226° Southwest  Level FlightAware Approximate
Wed 03:15:00 PM -18.5694 167.3786 226° Southwest  Level FlightAware Approximate
Wed 03:16:00 PM -18.6314 167.3110 226° Southwest  Level FlightAware Approximate
Wed 03:17:00 PM -18.6934 167.2434 226° Southwest  Level FlightAware Approximate
Wed 03:18:00 PM -18.7553 167.1757 226° Southwest  Level FlightAware Approximate
Wed 03:19:00 PM -18.8172 167.1080 226° Southwest  Level FlightAware Approximate
Wed 03:20:00 PM -18.8791 167.0402 226° Southwest  Level FlightAware Approximate
Wed 03:21:00 PM -18.9409 166.9723 226° Southwest  Level FlightAware Approximate
Wed 03:22:00 PM -19.0028 166.9044 226° Southwest  Level FlightAware Approximate
Wed 03:23:00 PM -19.0646 166.8365 226° Southwest  Level FlightAware Approximate
Wed 03:24:00 PM -19.1263 166.7685 226° Southwest  Level FlightAware Approximate
Wed 03:25:00 PM -19.1881 166.7005 226° Southwest  Level FlightAware Approximate
Wed 03:26:00 PM -19.2498 166.6324 226° Southwest  Level FlightAware Approximate
Wed 03:27:00 PM -19.3115 166.5642 226° Southwest  Level FlightAware Approximate
Wed 03:28:00 PM -19.3732 166.4960 226° Southwest  Level FlightAware Approximate
Wed 03:29:00 PM -19.4348 166.4278 226° Southwest  Level FlightAware Approximate
Wed 03:30:00 PM -19.4965 166.3595 226° Southwest  Level FlightAware Approximate
Wed 03:31:00 PM -19.5581 166.2912 226° Southwest  Level FlightAware Approximate
Wed 03:32:00 PM -19.6196 166.2227 226° Southwest  Level FlightAware Approximate
Wed 03:33:00 PM -19.6812 166.1543 226° Southwest  Level FlightAware Approximate
Wed 03:34:00 PM -19.7427 166.0858 226° Southwest  Level FlightAware Approximate
Wed 03:35:00 PM -19.8042 166.0172 226° Southwest  Level FlightAware Approximate
Wed 03:36:00 PM -19.8657 165.9486 226° Southwest  Level FlightAware Approximate
Wed 03:37:00 PM -19.9271 165.8799 226° Southwest  Level FlightAware Approximate
Wed 03:38:00 PM -19.9885 165.8112 226° Southwest  Level FlightAware Approximate
Wed 03:39:00 PM -20.0499 165.7425 226° Southwest  Level FlightAware Approximate
Wed 03:40:00 PM -20.1113 165.6736 226° Southwest  Level FlightAware Approximate
Wed 03:41:00 PM -20.1726 165.6048 227° Southwest  Level FlightAware Approximate
Wed 03:42:00 PM -20.2339 165.5358 227° Southwest  Level FlightAware Approximate
Wed 03:43:00 PM -20.3023 165.4749 212° Southwest  Level Estimated
Wed 03:44:00 PM -20.3731 165.4171 217° Southwest  Level FlightAware Approximate
Wed 03:45:00 PM -20.4438 165.3593 217° Southwest  Level FlightAware Approximate
Wed 03:46:00 PM -20.5146 165.3014 217° Southwest  Level FlightAware Approximate
Wed 03:47:00 PM -20.5853 165.2434 217° Southwest  Level FlightAware Approximate
Wed 03:48:00 PM -20.6560 165.1855 218° Southwest  Level FlightAware Approximate
Wed 03:49:00 PM -20.7267 165.1274 218° Southwest  Level FlightAware Approximate
Wed 03:50:00 PM -20.7973 165.0693 218° Southwest  Level FlightAware Approximate
Wed 03:51:00 PM -20.8680 165.0112 218° Southwest  Level FlightAware Approximate
Wed 03:52:00 PM -20.9386 164.9530 218° Southwest  Level FlightAware Approximate
Wed 03:53:00 PM -21.0092 164.8947 218° Southwest  Level FlightAware Approximate
Wed 03:54:00 PM -21.0798 164.8364 218° Southwest  Level FlightAware Approximate
Wed 03:55:00 PM -21.1504 164.7780 218° Southwest  Level FlightAware Approximate
Wed 03:55:21 PM -22.2013 163.2763 219° Southwest 38,000  Level Aus ATC (Calculated)
Wed 03:57:00 PM -22.3114 163.1903 216° Southwest  Level FlightAware Approximate
Wed 03:58:00 PM -22.3781 163.1381 216° Southwest  Level FlightAware Approximate
Wed 03:58:21 PM -22.4282 163.0094 218° Southwest 38,000  Level Aus ATC (Calculated)
Wed 03:59:00 PM -22.4967 162.9286 218° Southwest 38,000  Level Aus ATC (Calculated)
Wed 04:00:00 PM -22.5637 162.8768 216° Southwest  Level FlightAware Approximate
Wed 04:01:00 PM -22.6306 162.8250 216° Southwest  Level FlightAware Approximate
Wed 04:01:13 PM -22.6954 162.6934 218° Southwest 38,000  Level Aus ATC (Calculated)
Wed 04:03:00 PM -22.8152 162.6014 215° Southwest  Level FlightAware Approximate
Wed 04:04:00 PM -22.8824 162.5497 215° Southwest  Level FlightAware Approximate
Wed 04:05:00 PM -22.9496 162.4980 215° Southwest  Level FlightAware Approximate
Wed 04:06:00 PM -23.0168 162.4463 215° Southwest  Level FlightAware Approximate
Wed 04:07:00 PM -23.0839 162.3945 215° Southwest  Level FlightAware Approximate
Wed 04:08:00 PM -23.1510 162.3427 215° Southwest  Level FlightAware Approximate
Wed 04:09:00 PM -23.2181 162.2907 215° Southwest  Level FlightAware Approximate
Wed 04:10:00 PM -23.2852 162.2388 215° Southwest  Level FlightAware Approximate
Wed 04:11:00 PM -23.3523 162.1868 215° Southwest  Level FlightAware Approximate
Wed 04:12:00 PM -23.4193 162.1347 215° Southwest  Level FlightAware Approximate
Wed 04:12:23 PM -23.5914 161.6188 216° Southwest 38,000  Level Aus ATC (Calculated)
Wed 04:13:00 PM -23.4864 162.0826 215° Southwest  Level FlightAware Approximate
Wed 04:14:00 PM -23.7019 161.5378 214° Southwest  Level FlightAware Approximate
Wed 04:14:28 PM -23.7808 161.3886 215° Southwest 38,000  Level Aus ATC (Calculated)
Wed 04:16:00 PM -23.8860 161.3124 213° Southwest  Level FlightAware Approximate
Wed 04:17:00 PM -23.9547 161.2626 214° Southwest  Level FlightAware Approximate
Wed 04:18:00 PM -24.0233 161.2128 214° Southwest  Level FlightAware Approximate
Wed 04:19:00 PM -24.0919 161.1630 214° Southwest  Level FlightAware Approximate
Wed 04:20:00 PM -24.1605 161.1130 214° Southwest  Level FlightAware Approximate
Wed 04:21:00 PM -24.2290 161.0630 214° Southwest  Level FlightAware Approximate
Wed 04:22:00 PM -24.2976 161.0130 214° Southwest  Level FlightAware Approximate
Wed 04:23:00 PM -24.3661 160.9629 214° Southwest  Level FlightAware Approximate
Wed 04:24:00 PM -24.4346 160.9128 214° Southwest  Level FlightAware Approximate
Wed 04:25:00 PM -24.5031 160.8626 214° Southwest  Level FlightAware Approximate
Wed 04:26:00 PM -24.5716 160.8123 214° Southwest  Level FlightAware Approximate
Wed 04:27:00 PM -24.6401 160.7620 214° Southwest  Level FlightAware Approximate
Wed 04:28:00 PM -24.7085 160.7117 214° Southwest  Level FlightAware Approximate
Wed 04:29:00 PM -24.7770 160.6613 214° Southwest  Level FlightAware Approximate
Wed 04:30:00 PM -24.8454 160.6108 214° Southwest  Level FlightAware Approximate
Wed 04:31:00 PM -24.9138 160.5603 214° Southwest  Level FlightAware Approximate
Wed 04:32:00 PM -24.9822 160.5097 214° Southwest  Level FlightAware Approximate
Wed 04:33:00 PM -25.0505 160.4590 214° Southwest  Level FlightAware Approximate
Wed 04:34:00 PM -25.1189 160.4083 214° Southwest  Level FlightAware Approximate
Wed 04:35:00 PM -25.1872 160.3576 214° Southwest  Level FlightAware Approximate
Wed 04:36:00 PM -25.2555 160.3068 214° Southwest  Level FlightAware Approximate
Wed 04:36:00 PM -25.7770 159.5786 212° Southwest 38,000  Level Aus ATC (Calculated)
Wed 04:37:00 PM -25.8469 159.5303 212° Southwest  Level FlightAware Approximate
Wed 04:37:16 PM -25.9241 159.4769 212° Southwest 38,000  Level Aus ATC (Calculated)
Wed 04:39:00 PM -26.0441 159.3937 212° Southwest  Level FlightAware Approximate
Wed 04:40:00 PM -26.1133 159.3456 212° Southwest  Level FlightAware Approximate
Wed 04:41:00 PM -26.1824 159.2975 212° Southwest  Level FlightAware Approximate
Wed 04:42:00 PM -26.2516 159.2493 212° Southwest  Level FlightAware Approximate
Wed 04:43:00 PM -26.3208 159.2011 212° Southwest  Level FlightAware Approximate
Wed 04:44:00 PM -26.3899 159.1528 212° Southwest  Level FlightAware Approximate
Wed 04:45:00 PM -26.4590 159.1045 212° Southwest  Level FlightAware Approximate
Wed 04:46:00 PM -26.5281 159.0560 212° Southwest  Level FlightAware Approximate
Wed 04:47:00 PM -26.5972 159.0076 212° Southwest  Level FlightAware Approximate
Wed 04:48:00 PM -26.6663 158.9590 212° Southwest  Level FlightAware Approximate
Wed 04:49:00 PM -26.7353 158.9105 212° Southwest  Level FlightAware Approximate
Wed 04:50:00 PM -26.8044 158.8618 212° Southwest  Level FlightAware Approximate
Wed 04:51:00 PM -26.8734 158.8131 212° Southwest  Level FlightAware Approximate
Wed 04:52:00 PM -26.9424 158.7644 212° Southwest  Level FlightAware Approximate
Wed 04:53:00 PM -27.0114 158.7155 212° Southwest  Level FlightAware Approximate
Wed 04:54:00 PM -27.0804 158.6667 212° Southwest  Level FlightAware Approximate
Wed 04:55:00 PM -27.1493 158.6177 212° Southwest  Level FlightAware Approximate
Wed 04:56:00 PM -27.2183 158.5687 212° Southwest  Level FlightAware Approximate
Wed 04:57:00 PM -27.2872 158.5197 212° Southwest  Level FlightAware Approximate
Wed 04:58:00 PM -27.3561 158.4706 212° Southwest  Level FlightAware Approximate
Wed 04:58:19 PM -28.2184 157.8494 33° Northeast 38,000  Level Aus ATC (Calculated)
Wed 05:00:00 PM -28.3340 157.7653 213° Southwest  Level FlightAware Approximate
Wed 05:00:20 PM -28.4127 157.7078 33° Northeast 38,000  Level Aus ATC (Calculated)
Wed 05:02:00 PM -28.5271 157.6242 213° Southwest  Level FlightAware Approximate
Wed 05:02:19 PM -28.6069 157.5656 33° Northeast 38,000  Level Aus ATC (Calculated)
Wed 05:03:00 PM -28.5956 157.5739 213° Southwest  Level FlightAware Approximate
Wed 05:04:00 PM -28.7286 157.4762 213° Southwest  Level FlightAware Approximate
Wed 05:05:00 PM -28.8009 157.4230 213° Southwest  Level FlightAware Approximate
Wed 05:05:18 PM -28.9463 157.3156 33° Northeast 38,000  Level Aus ATC (Calculated)
Wed 05:05:52 PM -28.9948 157.2798 33° Northeast 38,000  Level Aus ATC (Calculated)
Wed 05:06:07 PM -29.0432 157.2439 33° Northeast 38,000  Level Aus ATC (Calculated)
Wed 05:08:00 PM -29.1791 157.1430 213° Southwest  Level FlightAware Approximate
Wed 05:08:47 PM -27.7024 158.2238 213° Southwest 410 472 38,000  Level Aus ATC (RADAR)
Wed 05:09:12 PM -27.7432 158.1939 213° Southwest 424 488 38,000  Level Aus ATC (RADAR)
Wed 05:09:47 PM -27.7977 158.1526 214° Southwest 411 473 38,000  Level Aus ATC (RADAR)
Wed 05:10:32 PM -27.8720 158.0994 212° Southwest 417 480 38,000  Level Aus ATC (RADAR)
Wed 05:11:07 PM -27.9280 158.0576 213° Southwest 416 479 38,000  Level Aus ATC (RADAR)
Wed 05:11:47 PM -27.9944 158.0097 212° Southwest 420 483 38,000  Level Aus ATC (RADAR)
Wed 05:12:21 PM -28.0535 157.9679 212° Southwest 426 490 38,000  Level Aus ATC (RADAR)
Wed 05:13:52 PM -28.2063 157.8589 212° Southwest 433 498 38,000  Level Aus ATC (RADAR)
Wed 05:14:16 PM -28.2479 157.8286 213° Southwest 432 497 38,000  Level Aus ATC (RADAR)
Wed 05:14:51 PM -28.3057 157.7860 213° Southwest 428 493 38,000  Level Aus ATC (RADAR)
Wed 05:15:46 PM -28.3980 157.7184 213° Southwest 430 495 38,000  Level Aus ATC (RADAR)
Wed 05:16:21 PM -28.4568 157.6753 213° Southwest 430 495 38,000  Level Aus ATC (RADAR)
Wed 05:17:11 PM -28.5404 157.6138 213° Southwest 430 495 38,000  Level Aus ATC (RADAR)
Wed 05:17:36 PM -28.5826 157.5833 212° Southwest 431 496 38,000  Level Aus ATC (RADAR)
Wed 05:18:56 PM -28.7173 157.4847 213° Southwest 432 497 38,000  Level Aus ATC (RADAR)
Wed 05:19:21 PM -28.7598 157.4538 213° Southwest 433 498 38,000  Level Aus ATC (RADAR)
Wed 05:19:56 PM -28.8185 157.4103 213° Southwest 433 498 38,000  Level Aus ATC (RADAR)
Wed 05:20:56 PM -28.9199 157.3354 213° Southwest 434 499 38,000  Level Aus ATC (RADAR)
Wed 05:21:31 PM -28.9793 157.2917 213° Southwest 436 502 38,000  Level Aus ATC (RADAR)
Wed 05:22:26 PM -29.0731 157.2226 213° Southwest 438 504 38,000  Level Aus ATC (RADAR)
Wed 05:23:45 PM -29.2086 157.1214 213° Southwest 438 504 38,000  Level Aus ATC (RADAR)
Wed 05:24:10 PM -29.2510 157.0896 213° Southwest 439 505 38,000  Level Aus ATC (RADAR)
Wed 05:24:45 PM -29.3116 157.0447 213° Southwest 442 509 38,000 150 Level Aus ATC (RADAR)
Wed 05:25:30 PM -29.3884 156.9872 213° Southwest 441 507 38,200 150 Climbing Aus ATC (RADAR)
Wed 05:26:05 PM -29.4471 156.9430 213° Southwest 438 504 38,200 -171 Level Aus ATC (RADAR)
Wed 05:26:40 PM -29.5072 156.8982 213° Southwest 440 506 38,000 -171 Descending Aus ATC (RADAR)
Wed 05:27:15 PM -29.5673 156.8533 213° Southwest 442 509 38,000 114 Level Aus ATC (RADAR)
Wed 05:28:25 PM -29.6881 156.7623 213° Southwest 446 513 38,200 126 Climbing Aus ATC (RADAR)
Wed 05:28:50 PM -29.7311 156.7296 213° Southwest 446 513 38,200 -120 Level Aus ATC (RADAR)
Wed 05:29:15 PM -29.7745 156.6971 213° Southwest 446 513 38,100  Descending Aus ATC (RADAR)
Wed 05:29:50 PM -29.8343 156.6521 213° Southwest 443 510 38,200 75 Climbing Aus ATC (RADAR)
Wed 05:30:35 PM -29.9100 156.5948 213° Southwest 437 503 38,200 -75 Level Aus ATC (RADAR)
Wed 05:31:10 PM -29.9691 156.5499 213° Southwest 437 503 38,100  Descending Aus ATC (RADAR)
Wed 05:31:55 PM -30.0457 156.4921 213° Southwest 438 504 38,200 87 Climbing Aus ATC (RADAR)
Wed 05:32:19 PM -30.0876 156.4601 214° Southwest 437 503 38,200 -61 Level Aus ATC (RADAR)
Wed 05:33:34 PM -30.2143 156.3635 213° Southwest 439 505 38,100 -60 Descending Aus ATC (RADAR)
Wed 05:33:59 PM -30.2558 156.3319 213° Southwest 435 501 38,100  Level Aus ATC (RADAR)
Wed 05:34:24 PM -30.2981 156.2997 213° Southwest 435 501 38,100  Level Aus ATC (RADAR)
Wed 05:34:59 PM -30.3568 156.2547 213° Southwest 437 503 38,100  Level Aus ATC (RADAR)
Wed 05:35:44 PM -30.4326 156.1967 213° Southwest 436 502 38,100  Level Aus ATC (RADAR)
Wed 05:36:19 PM -30.4913 156.1516 213° Southwest 435 501 38,100  Level Aus ATC (RADAR)
Wed 05:37:04 PM -30.5666 156.0940 213° Southwest 434 499 38,100  Level Aus ATC (RADAR)
Wed 05:37:29 PM -30.6084 156.0619 213° Southwest 434 499 38,100  Level Aus ATC (RADAR)
Wed 05:38:39 PM -30.7248 155.9719 214° Southwest 432 497 38,100  Level Aus ATC (RADAR)
Wed 05:39:04 PM -30.7665 155.9397 214° Southwest 432 497 38,100  Level Aus ATC (RADAR)
Wed 05:39:39 PM -30.8246 155.8950 213° Southwest 431 496 38,100  Level Aus ATC (RADAR)
Wed 05:40:24 PM -30.9066 155.8481 206° Southwest 439 505 38,100  Level Aus ATC (RADAR)
Wed 05:40:58 PM -30.9715 155.8123 205° Southwest 442 509 38,100  Level Aus ATC (RADAR)
Wed 05:41:48 PM -31.0638 155.7610 205° Southwest 443 510 38,100  Level Aus ATC (RADAR)
Wed 05:42:13 PM -31.1101 155.7350 206° Southwest 444 511 38,100  Level Aus ATC (RADAR)
Wed 05:42:48 PM -31.1748 155.6986 206° Southwest 444 511 38,100 -143 Level Aus ATC (RADAR)
Wed 05:42:55 PM -31.1710 155.7020 206° Southwest 444 511 38,000 -122 Descending FlightAware ADS-B
Wed 05:43:37 PM -31.2560 155.6530 206° Southwest 445 512 38,000 113 Level FlightAware ADS-B
Wed 05:43:48 PM -31.2857 155.6360 206° Southwest 445 512 38,100 167 Climbing Aus ATC (RADAR)
Wed 05:44:13 PM -31.3321 155.6100 206° Southwest 445 512 38,100 -136 Level Aus ATC (RADAR)
Wed 05:44:32 PM -31.3490 155.6010 206° Southwest 445 512 38,000  Descending FlightAware ADS-B
Wed 05:44:48 PM -31.3970 155.5735 206° Southwest 445 512 38,100 98 Climbing Aus ATC (RADAR)
Wed 05:45:33 PM -31.4805 155.5266 206° Southwest 445 512 38,100 -125 Level Aus ATC (RADAR)
Wed 05:45:36 PM -31.4680 155.5340 206° Southwest 446 513 38,000  Descending FlightAware ADS-B
Wed 05:46:08 PM -31.5460 155.4897 206° Southwest 448 516 38,100  Climbing Aus ATC (RADAR)
Wed 05:46:36 PM -31.5760 155.4740 206° Southwest 446 513 38,000  Descending FlightAware ADS-B
Wed 05:47:18 PM -31.6758 155.4160 206° Southwest 444 511 38,100  Climbing Aus ATC (RADAR)
Wed 05:47:24 PM -31.6520 155.4320 206° Southwest 446 513 38,000 -91 Descending FlightAware ADS-B
Wed 05:48:24 PM -31.7470 155.3800 205° Southwest 446 513 38,000  Level FlightAware ADS-B
Wed 05:48:48 PM -31.7850 155.3590 205° Southwest 446 513 38,000 176 Level FlightAware ADS-B
Wed 05:48:58 PM -31.8604 155.3109 205° Southwest 441 507 38,100 150 Climbing Aus ATC (RADAR)
Wed 05:49:28 PM -31.9161 155.2788 205° Southwest 445 512 38,100 -158 Level Aus ATC (RADAR)
Wed 05:49:36 PM -31.8620 155.3170 205° Southwest 446 513 38,000  Descending FlightAware ADS-B
Wed 05:50:47 PM -32.0634 155.1950 205° Southwest 443 510 38,100  Climbing Aus ATC (RADAR)
Wed 05:50:59 PM -32.0770 155.1880 205° Southwest 444 511 38,000 -105 Descending FlightAware ADS-B
Wed 05:51:44 PM -32.1580 155.1410 205° Southwest 444 511 38,000 82 Level FlightAware ADS-B
Wed 05:52:12 PM -32.2203 155.1051 205° Southwest 442 509 38,100 113 Climbing Aus ATC (RADAR)
Wed 05:52:37 PM -32.2667 155.0783 205° Southwest 445 512 38,100 -167 Level Aus ATC (RADAR)
Wed 05:52:48 PM -32.2770 155.0730 205° Southwest 445 512 38,000 -118 Descending FlightAware ADS-B
Wed 05:53:28 PM -32.3510 155.0300 205° Southwest 445 512 38,000 122 Level FlightAware ADS-B
Wed 05:53:37 PM -32.3774 155.0148 205° Southwest 443 510 38,100 176 Climbing Aus ATC (RADAR)
Wed 05:54:02 PM -32.4236 154.9881 205° Southwest 445 512 38,100 -150 Level Aus ATC (RADAR)
Wed 05:54:17 PM -32.4440 154.9760 206° Southwest 444 511 38,000  Descending FlightAware ADS-B
Wed 05:54:27 PM -32.4695 154.9614 206° Southwest 444 511 38,100  Climbing Aus ATC (RADAR)
Wed 05:54:41 PM -32.4890 154.9510 206° Southwest 444 511 38,000  Descending FlightAware ADS-B
Wed 05:55:02 PM -32.5339 154.9244 206° Southwest 442 509 38,100  Climbing Aus ATC (RADAR)
Wed 05:55:15 PM -32.5550 154.9130 206° Southwest 444 511 38,000  Descending FlightAware ADS-B
Wed 05:55:47 PM -32.6165 154.8764 206° Southwest 441 507 38,100  Climbing Aus ATC (RADAR)
Wed 05:56:08 PM -32.6470 154.8590 206° Southwest 441 507 38,000 -88 Descending FlightAware ADS-B
Wed 05:56:55 PM -32.7320 154.8100 206° Southwest 440 506 38,000 67 Level FlightAware ADS-B
Wed 05:57:37 PM -32.8172 154.7592 206° Southwest 439 505 38,100  Climbing Aus ATC (RADAR)
Wed 05:57:42 PM -32.8220 154.7570 206° Southwest 438 504 38,000 -171 Descending FlightAware ADS-B
Wed 05:58:12 PM -32.8700 154.7290 206° Southwest 438 504 38,000 111 Level FlightAware ADS-B
Wed 05:58:36 PM -32.9250 154.6959 206° Southwest 435 501 38,100 120 Climbing Aus ATC (RADAR)
Wed 05:59:02 PM -32.9703 154.6694 206° Southwest 436 502 38,100 -154 Level Aus ATC (RADAR)
Wed 05:59:15 PM -32.9820 154.6630 206° Southwest 437 503 38,000  Descending FlightAware ADS-B
Wed 05:59:26 PM -33.0155 154.6427 206° Southwest 437 503 38,100  Climbing Aus ATC (RADAR)
Wed 05:59:50 PM -33.0530 154.6210 206° Southwest 436 502 38,000  Descending FlightAware ADS-B
Wed 06:00:03 PM -33.0792 154.6056 206° Southwest 437 503 38,100  Climbing Aus ATC (RADAR)
Wed 06:00:39 PM -33.1420 154.5690 206° Southwest 429 494 38,000  Descending FlightAware ADS-B
Wed 06:00:51 PM -33.1692 154.5522 206° Southwest 436 502 38,100  Climbing Aus ATC (RADAR)
Wed 06:01:24 PM -33.2230 154.5220 206° Southwest 429 494 38,000  Descending FlightAware ADS-B
Wed 06:01:26 PM -33.2331 154.5152 206° Southwest 437 503 38,100 128 Climbing Aus ATC (RADAR)
Wed 06:02:11 PM -33.3142 154.4672 206° Southwest 436 502 38,100 -109 Level Aus ATC (RADAR)
Wed 06:02:21 PM -33.3270 154.4600 206° Southwest 439 505 38,000 -200 Descending FlightAware ADS-B
Wed 06:02:41 PM -33.3580 154.4310 218° Southwest 440 506 38,000  Level FlightAware ADS-B
Wed 06:03:05 PM -33.3840 154.3830 237° Southwest 440 506 38,000 86 Level FlightAware ADS-B
Wed 06:03:51 PM -33.4261 154.2724 237° Southwest 438 504 38,100  Climbing Aus ATC (RADAR)
Wed 06:03:54 PM -33.4260 154.2770 237° Southwest 440 506 38,000 -222 Descending FlightAware ADS-B
Wed 06:04:18 PM -33.4470 154.2220 245° Southwest 440 506 38,000  Level FlightAware ADS-B
Wed 06:05:10 PM -33.4920 154.1080 245° Southwest 440 506 38,000 103 Level FlightAware ADS-B
Wed 06:05:16 PM -33.4994 154.0859 245° Southwest 435 501 38,100 118 Climbing Aus ATC (RADAR)
Wed 06:06:01 PM -33.5386 153.9864 245° Southwest 439 505 38,100 -100 Level Aus ATC (RADAR)
Wed 06:06:16 PM -33.5500 153.9600 245° Southwest 442 509 38,000  Descending FlightAware ADS-B
Wed 06:06:36 PM -33.5686 153.9086 245° Southwest 441 507 38,100  Climbing Aus ATC (RADAR)
Wed 06:07:13 PM -33.6000 153.8320 245° Southwest 444 511 38,000  Descending FlightAware ADS-B
Wed 06:07:21 PM -33.6079 153.8087 245° Southwest 442 509 38,100 182 Climbing Aus ATC (RADAR)
Wed 06:07:46 PM -33.6288 153.7532 245° Southwest 440 506 38,100 -171 Level Aus ATC (RADAR)
Wed 06:07:56 PM -33.6360 153.7380 245° Southwest 444 511 38,000 -118 Descending FlightAware ADS-B
Wed 06:08:37 PM -33.6730 153.6440 245° Southwest 445 512 38,000 81 Level FlightAware ADS-B
Wed 06:09:10 PM -33.7032 153.5634 245° Southwest 443 510 38,100  Climbing Aus ATC (RADAR)
Wed 06:09:33 PM -33.7200 153.5210 245° Southwest 445 512 38,000  Descending FlightAware ADS-B
Wed 06:09:35 PM -33.7248 153.5073 245° Southwest 444 511 38,100  Climbing Aus ATC (RADAR)
Wed 06:10:08 PM -33.7510 153.4400 245° Southwest 443 510 38,000  Descending FlightAware ADS-B
Wed 06:10:10 PM -33.7549 153.4293 245° Southwest 442 509 38,100 115 Climbing Aus ATC (RADAR)
Wed 06:11:00 PM -33.7974 153.3177 245° Southwest 440 506 38,100 -115 Level Aus ATC (RADAR)
Wed 06:11:02 PM -33.7970 153.3210 245° Southwest 443 510 38,000 -1,371 Descending FlightAware ADS-B
Wed 06:11:35 PM -33.8271 153.2403 245° Southwest 438 504 37,300 -1,333 Descending Aus ATC (RADAR)
Wed 06:11:38 PM -33.8260 153.2430 245° Southwest 438 504 37,200 -3,067 Descending FlightAware ADS-B
Wed 06:12:20 PM -33.8649 153.1404 245° Southwest 441 507 35,000 -3,182 Descending Aus ATC (RADAR)
Wed 06:12:44 PM -33.8840 153.0900 245° Southwest 447 514 33,700 -3,360 Descending FlightAware ADS-B
Wed 06:12:45 PM -33.8864 153.0839 245° Southwest 447 514 33,600 -2,760 Descending Aus ATC (RADAR)
Wed 06:13:34 PM -33.9280 152.9760 245° Southwest 444 511 31,400 -2,541 Descending FlightAware ADS-B
Wed 06:14:10 PM -33.9593 152.8918 245° Southwest 445 512 30,000 -2,133 Descending Aus ATC (RADAR)
Wed 06:14:19 PM -33.9620 152.8840 246° West 443 510 29,800 -2,400 Descending FlightAware ADS-B
Wed 06:14:35 PM -33.9804 152.8359 246° West 442 509 29,000 -2,914 Descending Aus ATC (RADAR)
Wed 06:14:54 PM -33.9965 152.7937 245° Southwest 442 509 28,100 -2,500 Descending FlightAware ADS-B
Wed 06:15:35 PM -34.0301 152.7040 245° Southwest 433 498 26,500 -2,200 Descending Aus ATC (RADAR)
Wed 06:15:54 PM -34.0430 152.6710 245° Southwest 422 486 25,900 -2,327 Descending FlightAware ADS-B
Wed 06:16:24 PM -34.0698 152.5982 245° Southwest 414 476 24,600 -2,348 Descending Aus ATC (RADAR)
Wed 06:16:40 PM -34.0760 152.5700 263° West 413 475 24,100 -2,333 Descending FlightAware ADS-B
Wed 06:17:00 PM -34.0778 152.5168 263° West 421 484 23,200 -2,647 Descending Aus ATC (RADAR)
Wed 06:17:14 PM -34.0744 152.4844 271° West 409 471 22,600 -2,267 Descending FlightAware ADS-B
Wed 06:17:45 PM -34.0677 152.4166 271° West 400 460 21,500 -2,318 Descending Aus ATC (RADAR)
Wed 06:17:58 PM -34.0652 152.3864 271° West 399 459 20,900 -2,455 Descending FlightAware ADS-B
Wed 06:18:29 PM -34.0589 152.3194 276° West 387 445 19,700 -2,226 Descending FlightAware ADS-B
Wed 06:19:00 PM -34.0527 152.2543 276° West 379 436 18,600 -2,164 Descending FlightAware ADS-B
Wed 06:19:30 PM -34.0467 152.1919 277° West 371 427 17,500 -1,875 Descending FlightAware ADS-B
Wed 06:20:04 PM -34.0402 152.1244 277° West 359 413 16,600 -1,147 Descending FlightAware ADS-B
Wed 06:20:38 PM -34.0339 152.0594 277° West 325 374 16,200 -1,250 Descending FlightAware ADS-B
Wed 06:21:16 PM -34.0273 151.9931 277° West 318 366 15,100 -1,562 Descending FlightAware ADS-B
Wed 06:21:51 PM -34.0210 151.9306 277° West 313 360 14,300 -1,522 Descending FlightAware ADS-B
Wed 06:22:23 PM -34.0154 151.8757 277° West 308 354 13,400 -1,588 Descending FlightAware ADS-B
Wed 06:22:59 PM -34.0093 151.8157 277° West 301 346 12,500 -1,397 Descending FlightAware ADS-B
Wed 06:23:36 PM -34.0040 151.7610 277° West 296 341 11,700 -1,500 Descending FlightAware ADS-B
Wed 06:23:55 PM -34.0062 151.7844 97° East 291 335 11,100 -1,672 Descending FlightAware ADS-B
Wed 06:24:37 PM -33.9931 151.6568 277° West 288 331 10,000 -1,729 Descending FlightAware ADS-B
Wed 06:24:54 PM -33.9906 151.6314 277° West 289 333 9,400 -1,857 Descending FlightAware ADS-B
Wed 06:25:19 PM -33.9866 151.5935 277° West 288 331 8,700 -1,174 Descending FlightAware ADS-B
Wed 06:25:40 PM -33.9830 151.5595 277° West 274 315 8,500 -649 Descending FlightAware ADS-B
Wed 06:25:56 PM -33.9819 151.5490 277° West 267 307 8,300 -840 Descending FlightAware ADS-B
Wed 06:26:30 PM -33.9758 151.4917 277° West 252 290 7,800 -977 Descending FlightAware ADS-B
Wed 06:26:39 PM -33.9736 151.4727 278° West 249 287 7,600 -750 Descending FlightAware ADS-B
Wed 06:26:54 PM -33.9713 151.4538 278° West 245 282 7,500 -600 Descending FlightAware ADS-B
Wed 06:27:09 PM -33.9688 151.4329 278° West 237 273 7,300 -529 Descending FlightAware ADS-B
Wed 06:27:28 PM -33.9660 151.4086 278° West 237 273 7,200 -600 Descending FlightAware ADS-B
Wed 06:27:49 PM -33.9629 151.3821 278° West 237 273 6,900 -474 Descending FlightAware ADS-B
Wed 06:28:06 PM -33.9604 151.3595 278° West 237 273 6,900 231 Level FlightAware ADS-B
Wed 06:28:15 PM -33.9597 151.3477 274° West 239 275 7,000  Climbing FlightAware ADS-B
Wed 06:28:25 PM -33.9625 151.3339 256° West 236 272 6,900 -286 Descending FlightAware ADS-B
Wed 06:28:36 PM -33.9686 151.3231 236° Southwest 232 267 6,900 -300 Level FlightAware ADS-B
Wed 06:28:45 PM -33.9770 151.3157 216° Southwest 229 264 6,800 -632 Descending FlightAware ADS-B
Wed 06:28:55 PM -33.9838 151.3129 199° South 229 264 6,700 -1,200 Descending FlightAware ADS-B
Wed 06:29:00 PM -33.9770 151.3157 19° North 230 265 6,500 -1,000 Descending FlightAware ADS-B
Wed 06:29:13 PM -34.0062 151.3163 179° South 235 270 6,400 -800 Descending FlightAware ADS-B
Wed 06:29:30 PM -34.0233 151.3237 160° South 237 273 6,100 -1,000 Descending FlightAware ADS-B
Wed 06:29:49 PM -34.0437 151.3324 160° South 237 273 5,800 -1,077 Descending FlightAware ADS-B
Wed 06:30:09 PM -34.0627 151.3405 161° South 235 270 5,400 -1,105 Descending FlightAware ADS-B
Wed 06:30:27 PM -34.0804 151.3480 161° South 234 269 5,100 -900 Descending FlightAware ADS-B
Wed 06:30:49 PM -34.1055 151.3530 171° South 230 265 4,800 -882 Descending FlightAware ADS-B
Wed 06:31:01 PM -34.1120 151.3502 200° South 224 258 4,600 -900 Descending FlightAware ADS-B
Wed 06:31:09 PM -34.1219 151.3401 220° Southwest 220 253 4,500 -1,059 Descending FlightAware ADS-B
Wed 06:31:18 PM -34.1269 151.3318 234° Southwest 217 250 4,300 -1,263 Descending FlightAware ADS-B
Wed 06:31:28 PM -34.1301 151.3224 247° West 217 250 4,100 -1,161 Descending FlightAware ADS-B
Wed 06:31:49 PM -34.1364 151.2966 254° West 212 244 3,700 -1,071 Descending FlightAware ADS-B
Wed 06:31:56 PM -34.1362 151.2866 271° West 208 239 3,600 -923 Descending FlightAware ADS-B
Wed 06:32:02 PM -34.1348 151.2812 288° West 206 237 3,500 -706 Descending FlightAware ADS-B
Wed 06:32:13 PM -34.1279 151.2705 308° West 200 230 3,400 -857 Descending FlightAware ADS-B
Wed 06:32:30 PM -34.1170 151.2594 320° Northwest 196 226 3,100 -857 Descending FlightAware ADS-B
Wed 06:32:48 PM -34.1069 151.2491 320° Northwest 186 214 2,900 -857 Descending FlightAware ADS-B
Wed 06:33:12 PM -34.0888 151.2307 320° Northwest 180 207 2,500 -857 Descending FlightAware ADS-B
Wed 06:33:23 PM -34.0834 151.2260 324° Northwest 181 208 2,400 -828 Descending FlightAware ADS-B
Wed 06:33:41 PM -34.0684 151.2191 339° North 186 214 2,100 -909 Descending FlightAware ADS-B
Wed 06:33:56 PM -34.0559 151.2160 348° North 179 206 1,900 -909 Descending FlightAware ADS-B
Wed 06:34:14 PM -34.0402 151.2122 348° North 156 180 1,600 -1,111 Descending FlightAware ADS-B
Wed 06:34:50 PM -34.0170 151.2057 347° North 141 162 900 -1,071 Descending FlightAware ADS-B
Wed 06:35:10 PM -34.0042 151.2026 349° North 138 159 600 -878 Descending FlightAware ADS-B
Wed 06:35:31 PM -33.9945 151.2000 347° North 140 161 300 -291 Descending FlightAware ADS-B
Wed 06:36:13 PM -33.9643 151.1922 347° North 137 158 -146 Descending Aus ATC (RADAR)
Wed 06:36:17 PM -33.9630 151.1920 347° North 120 138 150 Level FlightAware ADS-B
Wed 06:36:53 PM -33.9535 151.1889 347° North 49 56 100 167 Climbing Aus ATC (RADAR)

Login

Don't have an account? Register now (free) for customized features, flight alerts, and more!